sensor_id;sensor_type;location;lat;lon;timestamp;P1;durP1;ratioP1;P2;durP2;ratioP2
55537;SDS011;41383;51.418;7.286;2023-06-10T00:02:14;19.57;;;11.80;;
55537;SDS011;41383;51.418;7.286;2023-06-10T00:04:41;18.15;;;12.20;;
55537;SDS011;41383;51.418;7.286;2023-06-10T00:07:07;22.48;;;10.88;;
55537;SDS011;41383;51.418;7.286;2023-06-10T00:09:36;20.75;;;11.13;;
55537;SDS011;41383;51.418;7.286;2023-06-10T00:12:05;16.77;;;10.18;;
55537;SDS011;41383;51.418;7.286;2023-06-10T00:14:32;11.98;;;8.48;;
55537;SDS011;41383;51.418;7.286;2023-06-10T00:16:58;14.95;;;8.68;;
55537;SDS011;41383;51.418;7.286;2023-06-10T00:19:24;12.30;;;8.63;;
55537;SDS011;41383;51.418;7.286;2023-06-10T00:21:54;11.45;;;8.30;;
55537;SDS011;41383;51.418;7.286;2023-06-10T00:24:20;15.23;;;9.40;;
55537;SDS011;41383;51.418;7.286;2023-06-10T00:26:45;13.73;;;9.43;;
55537;SDS011;41383;51.418;7.286;2023-06-10T00:29:11;15.80;;;10.07;;
55537;SDS011;41383;51.418;7.286;2023-06-10T00:31:37;15.52;;;9.52;;
55537;SDS011;41383;51.418;7.286;2023-06-10T00:34:03;15.70;;;9.98;;
55537;SDS011;41383;51.418;7.286;2023-06-10T00:36:28;15.50;;;11.05;;
55537;SDS011;41383;51.418;7.286;2023-06-10T00:38:54;17.27;;;11.02;;
55537;SDS011;41383;51.418;7.286;2023-06-10T00:41:20;14.77;;;10.47;;
55537;SDS011;41383;51.418;7.286;2023-06-10T00:43:45;20.43;;;10.80;;
55537;SDS011;41383;51.418;7.286;2023-06-10T00:46:11;14.70;;;10.10;;
55537;SDS011;41383;51.418;7.286;2023-06-10T00:48:37;14.50;;;9.25;;
55537;SDS011;41383;51.418;7.286;2023-06-10T00:51:04;16.38;;;9.82;;
55537;SDS011;41383;51.418;7.286;2023-06-10T00:53:30;13.52;;;9.90;;
55537;SDS011;41383;51.418;7.286;2023-06-10T00:55:56;21.55;;;9.95;;
55537;SDS011;41383;51.418;7.286;2023-06-10T00:58:22;17.20;;;9.75;;
55537;SDS011;41383;51.418;7.286;2023-06-10T01:00:48;16.92;;;9.18;;
55537;SDS011;41383;51.418;7.286;2023-06-10T01:03:14;14.60;;;9.98;;
55537;SDS011;41383;51.418;7.286;2023-06-10T01:05:42;16.02;;;9.63;;
55537;SDS011;41383;51.418;7.286;2023-06-10T01:11:08;18.10;;;10.77;;
55537;SDS011;41383;51.418;7.286;2023-06-10T01:13:42;22.38;;;10.45;;
55537;SDS011;41383;51.418;7.286;2023-06-10T01:16:10;14.32;;;9.85;;
55537;SDS011;41383;51.418;7.286;2023-06-10T01:18:36;17.50;;;9.38;;
55537;SDS011;41383;51.418;7.286;2023-06-10T01:21:03;14.80;;;9.32;;
55537;SDS011;41383;51.418;7.286;2023-06-10T01:23:29;19.48;;;10.80;;
55537;SDS011;41383;51.418;7.286;2023-06-10T01:26:04;18.75;;;9.55;;
55537;SDS011;41383;51.418;7.286;2023-06-10T01:28:51;12.82;;;8.73;;
55537;SDS011;41383;51.418;7.286;2023-06-10T01:31:27;17.98;;;10.18;;
55537;SDS011;41383;51.418;7.286;2023-06-10T01:34:01;12.07;;;8.13;;
55537;SDS011;41383;51.418;7.286;2023-06-10T01:36:31;12.38;;;8.23;;
55537;SDS011;41383;51.418;7.286;2023-06-10T01:38:58;14.73;;;9.30;;
55537;SDS011;41383;51.418;7.286;2023-06-10T01:41:24;16.38;;;8.52;;
55537;SDS011;41383;51.418;7.286;2023-06-10T01:43:50;15.63;;;9.52;;
55537;SDS011;41383;51.418;7.286;2023-06-10T01:46:16;16.63;;;9.60;;
55537;SDS011;41383;51.418;7.286;2023-06-10T01:48:44;19.02;;;9.65;;
55537;SDS011;41383;51.418;7.286;2023-06-10T01:51:09;14.50;;;9.47;;
55537;SDS011;41383;51.418;7.286;2023-06-10T01:53:35;14.97;;;10.20;;
55537;SDS011;41383;51.418;7.286;2023-06-10T01:56:00;15.20;;;9.27;;
55537;SDS011;41383;51.418;7.286;2023-06-10T01:58:25;15.67;;;9.40;;
55537;SDS011;41383;51.418;7.286;2023-06-10T02:00:50;15.33;;;8.73;;
55537;SDS011;41383;51.418;7.286;2023-06-10T02:03:16;18.43;;;9.80;;
55537;SDS011;41383;51.418;7.286;2023-06-10T02:05:41;20.05;;;9.20;;
55537;SDS011;41383;51.418;7.286;2023-06-10T02:08:06;17.27;;;9.90;;
55537;SDS011;41383;51.418;7.286;2023-06-10T02:10:32;14.43;;;10.60;;
55537;SDS011;41383;51.418;7.286;2023-06-10T02:12:57;12.63;;;9.37;;
55537;SDS011;41383;51.418;7.286;2023-06-10T02:15:22;15.43;;;10.18;;
55537;SDS011;41383;51.418;7.286;2023-06-10T02:17:48;19.57;;;10.50;;
55537;SDS011;41383;51.418;7.286;2023-06-10T02:20:14;15.57;;;10.65;;
55537;SDS011;41383;51.418;7.286;2023-06-10T02:22:39;15.07;;;9.90;;
55537;SDS011;41383;51.418;7.286;2023-06-10T02:25:05;12.90;;;9.83;;
55537;SDS011;41383;51.418;7.286;2023-06-10T02:27:30;14.13;;;9.30;;
55537;SDS011;41383;51.418;7.286;2023-06-10T02:29:56;17.02;;;10.20;;
55537;SDS011;41383;51.418;7.286;2023-06-10T02:32:22;18.88;;;10.85;;
55537;SDS011;41383;51.418;7.286;2023-06-10T02:34:50;12.45;;;9.23;;
55537;SDS011;41383;51.418;7.286;2023-06-10T02:37:16;15.50;;;10.93;;
55537;SDS011;41383;51.418;7.286;2023-06-10T02:39:41;12.98;;;9.63;;
55537;SDS011;41383;51.418;7.286;2023-06-10T02:42:07;14.23;;;10.32;;
55537;SDS011;41383;51.418;7.286;2023-06-10T02:44:32;14.05;;;9.55;;
55537;SDS011;41383;51.418;7.286;2023-06-10T02:46:58;17.67;;;10.48;;
55537;SDS011;41383;51.418;7.286;2023-06-10T02:49:23;13.90;;;10.75;;
55537;SDS011;41383;51.418;7.286;2023-06-10T02:51:50;14.57;;;10.53;;
55537;SDS011;41383;51.418;7.286;2023-06-10T02:54:18;16.10;;;10.77;;
55537;SDS011;41383;51.418;7.286;2023-06-10T02:56:43;17.33;;;10.50;;
55537;SDS011;41383;51.418;7.286;2023-06-10T02:59:09;15.60;;;10.53;;
55537;SDS011;41383;51.418;7.286;2023-06-10T03:01:34;18.37;;;11.87;;
55537;SDS011;41383;51.418;7.286;2023-06-10T03:04:01;15.23;;;10.25;;
55537;SDS011;41383;51.418;7.286;2023-06-10T03:06:28;15.77;;;10.50;;
55537;SDS011;41383;51.418;7.286;2023-06-10T03:08:54;16.27;;;10.40;;
55537;SDS011;41383;51.418;7.286;2023-06-10T03:11:19;14.17;;;10.23;;
55537;SDS011;41383;51.418;7.286;2023-06-10T03:13:45;17.55;;;11.55;;
55537;SDS011;41383;51.418;7.286;2023-06-10T03:16:10;18.90;;;11.07;;
55537;SDS011;41383;51.418;7.286;2023-06-10T03:18:37;22.65;;;11.30;;
55537;SDS011;41383;51.418;7.286;2023-06-10T03:21:02;18.48;;;11.77;;
55537;SDS011;41383;51.418;7.286;2023-06-10T03:23:28;14.43;;;10.27;;
55537;SDS011;41383;51.418;7.286;2023-06-10T03:25:54;16.02;;;11.68;;
55537;SDS011;41383;51.418;7.286;2023-06-10T03:28:20;16.02;;;10.55;;
55537;SDS011;41383;51.418;7.286;2023-06-10T03:30:46;14.45;;;10.43;;
55537;SDS011;41383;51.418;7.286;2023-06-10T03:33:12;17.30;;;10.88;;
55537;SDS011;41383;51.418;7.286;2023-06-10T03:35:38;15.52;;;10.55;;
55537;SDS011;41383;51.418;7.286;2023-06-10T03:38:03;16.50;;;11.03;;
55537;SDS011;41383;51.418;7.286;2023-06-10T03:40:29;15.07;;;10.53;;
55537;SDS011;41383;51.418;7.286;2023-06-10T03:42:56;15.25;;;9.90;;
55537;SDS011;41383;51.418;7.286;2023-06-10T03:45:21;15.80;;;11.10;;
55537;SDS011;41383;51.418;7.286;2023-06-10T03:47:46;16.50;;;10.67;;
55537;SDS011;41383;51.418;7.286;2023-06-10T03:50:13;16.88;;;11.48;;
55537;SDS011;41383;51.418;7.286;2023-06-10T03:52:38;15.07;;;10.57;;
55537;SDS011;41383;51.418;7.286;2023-06-10T03:55:04;18.23;;;11.30;;
55537;SDS011;41383;51.418;7.286;2023-06-10T03:57:30;18.13;;;10.50;;
55537;SDS011;41383;51.418;7.286;2023-06-10T03:59:55;15.27;;;10.60;;
55537;SDS011;41383;51.418;7.286;2023-06-10T04:02:21;18.50;;;12.30;;
55537;SDS011;41383;51.418;7.286;2023-06-10T04:04:47;19.20;;;13.20;;
55537;SDS011;41383;51.418;7.286;2023-06-10T04:07:13;20.77;;;13.60;;
55537;SDS011;41383;51.418;7.286;2023-06-10T04:09:39;24.95;;;14.95;;
55537;SDS011;41383;51.418;7.286;2023-06-10T04:12:04;20.75;;;13.60;;
55537;SDS011;41383;51.418;7.286;2023-06-10T04:14:33;16.30;;;12.80;;
55537;SDS011;41383;51.418;7.286;2023-06-10T04:16:59;19.63;;;12.23;;
55537;SDS011;41383;51.418;7.286;2023-06-10T04:19:24;19.10;;;11.75;;
55537;SDS011;41383;51.418;7.286;2023-06-10T04:21:49;15.73;;;11.05;;
55537;SDS011;41383;51.418;7.286;2023-06-10T04:24:15;18.33;;;12.48;;
55537;SDS011;41383;51.418;7.286;2023-06-10T04:26:40;20.23;;;12.23;;
55537;SDS011;41383;51.418;7.286;2023-06-10T04:29:05;20.57;;;12.23;;
55537;SDS011;41383;51.418;7.286;2023-06-10T04:31:30;20.13;;;14.33;;
55537;SDS011;41383;51.418;7.286;2023-06-10T04:33:57;23.05;;;13.07;;
55537;SDS011;41383;51.418;7.286;2023-06-10T04:36:22;14.00;;;10.18;;
55537;SDS011;41383;51.418;7.286;2023-06-10T04:38:48;17.02;;;10.80;;
55537;SDS011;41383;51.418;7.286;2023-06-10T04:41:13;15.70;;;10.90;;
55537;SDS011;41383;51.418;7.286;2023-06-10T04:43:39;21.53;;;11.80;;
55537;SDS011;41383;51.418;7.286;2023-06-10T04:46:04;17.17;;;11.30;;
55537;SDS011;41383;51.418;7.286;2023-06-10T04:48:29;18.80;;;11.40;;
55537;SDS011;41383;51.418;7.286;2023-06-10T04:50:55;21.92;;;13.55;;
55537;SDS011;41383;51.418;7.286;2023-06-10T04:53:21;17.95;;;11.90;;
55537;SDS011;41383;51.418;7.286;2023-06-10T04:55:47;19.13;;;13.73;;
55537;SDS011;41383;51.418;7.286;2023-06-10T04:58:13;21.60;;;12.63;;
55537;SDS011;41383;51.418;7.286;2023-06-10T05:00:38;19.10;;;11.90;;
55537;SDS011;41383;51.418;7.286;2023-06-10T05:03:03;20.23;;;12.73;;
55537;SDS011;41383;51.418;7.286;2023-06-10T05:05:29;19.87;;;12.93;;
55537;SDS011;41383;51.418;7.286;2023-06-10T05:07:54;18.23;;;12.50;;
55537;SDS011;41383;51.418;7.286;2023-06-10T05:10:19;20.97;;;11.77;;
55537;SDS011;41383;51.418;7.286;2023-06-10T05:12:45;19.87;;;12.87;;
55537;SDS011;41383;51.418;7.286;2023-06-10T05:15:10;17.20;;;11.27;;
55537;SDS011;41383;51.418;7.286;2023-06-10T05:17:35;17.67;;;11.27;;
55537;SDS011;41383;51.418;7.286;2023-06-10T05:20:01;18.65;;;10.38;;
55537;SDS011;41383;51.418;7.286;2023-06-10T05:22:27;18.08;;;10.80;;
55537;SDS011;41383;51.418;7.286;2023-06-10T05:24:52;17.17;;;12.13;;
55537;SDS011;41383;51.418;7.286;2023-06-10T05:27:18;19.25;;;13.40;;
55537;SDS011;41383;51.418;7.286;2023-06-10T05:29:43;19.63;;;12.88;;
55537;SDS011;41383;51.418;7.286;2023-06-10T05:32:10;18.92;;;10.68;;
55537;SDS011;41383;51.418;7.286;2023-06-10T05:34:35;17.00;;;12.05;;
55537;SDS011;41383;51.418;7.286;2023-06-10T05:37:00;17.17;;;10.93;;
55537;SDS011;41383;51.418;7.286;2023-06-10T05:39:26;17.53;;;12.17;;
55537;SDS011;41383;51.418;7.286;2023-06-10T05:41:51;18.37;;;10.13;;
55537;SDS011;41383;51.418;7.286;2023-06-10T05:44:16;17.80;;;11.50;;
55537;SDS011;41383;51.418;7.286;2023-06-10T05:46:41;23.17;;;11.63;;
55537;SDS011;41383;51.418;7.286;2023-06-10T05:49:07;17.15;;;11.88;;
55537;SDS011;41383;51.418;7.286;2023-06-10T05:51:32;17.67;;;10.93;;
55537;SDS011;41383;51.418;7.286;2023-06-10T05:53:57;16.97;;;11.73;;
55537;SDS011;41383;51.418;7.286;2023-06-10T05:56:23;15.68;;;10.73;;
55537;SDS011;41383;51.418;7.286;2023-06-10T05:58:49;18.95;;;10.93;;
55537;SDS011;41383;51.418;7.286;2023-06-10T06:01:14;17.70;;;11.80;;
55537;SDS011;41383;51.418;7.286;2023-06-10T06:03:40;16.80;;;11.82;;
55537;SDS011;41383;51.418;7.286;2023-06-10T06:06:05;17.25;;;11.43;;
55537;SDS011;41383;51.418;7.286;2023-06-10T06:08:30;17.85;;;11.32;;
55537;SDS011;41383;51.418;7.286;2023-06-10T06:10:56;14.80;;;9.33;;
55537;SDS011;41383;51.418;7.286;2023-06-10T06:13:21;18.92;;;11.30;;
55537;SDS011;41383;51.418;7.286;2023-06-10T06:15:47;17.27;;;10.05;;
55537;SDS011;41383;51.418;7.286;2023-06-10T06:18:12;12.48;;;8.95;;
55537;SDS011;41383;51.418;7.286;2023-06-10T06:20:37;17.93;;;10.80;;
55537;SDS011;41383;51.418;7.286;2023-06-10T06:23:02;22.48;;;10.70;;
55537;SDS011;41383;51.418;7.286;2023-06-10T06:25:28;16.75;;;10.63;;
55537;SDS011;41383;51.418;7.286;2023-06-10T06:27:53;16.13;;;10.63;;
55537;SDS011;41383;51.418;7.286;2023-06-10T06:30:18;13.60;;;9.25;;
55537;SDS011;41383;51.418;7.286;2023-06-10T06:32:44;15.23;;;9.32;;
55537;SDS011;41383;51.418;7.286;2023-06-10T06:35:09;16.97;;;8.17;;
55537;SDS011;41383;51.418;7.286;2023-06-10T06:37:35;13.05;;;8.68;;
55537;SDS011;41383;51.418;7.286;2023-06-10T06:40:00;17.80;;;9.23;;
55537;SDS011;41383;51.418;7.286;2023-06-10T06:42:26;13.27;;;8.15;;
55537;SDS011;41383;51.418;7.286;2023-06-10T06:44:51;12.03;;;8.47;;
55537;SDS011;41383;51.418;7.286;2023-06-10T06:47:16;16.93;;;8.93;;
55537;SDS011;41383;51.418;7.286;2023-06-10T06:49:47;14.27;;;8.38;;
55537;SDS011;41383;51.418;7.286;2023-06-10T06:52:13;11.52;;;7.65;;
55537;SDS011;41383;51.418;7.286;2023-06-10T06:54:38;11.95;;;8.05;;
55537;SDS011;41383;51.418;7.286;2023-06-10T06:57:04;18.40;;;8.40;;
55537;SDS011;41383;51.418;7.286;2023-06-10T06:59:30;19.05;;;9.35;;
55537;SDS011;41383;51.418;7.286;2023-06-10T07:01:56;11.98;;;7.22;;
55537;SDS011;41383;51.418;7.286;2023-06-10T07:04:21;13.00;;;8.10;;
55537;SDS011;41383;51.418;7.286;2023-06-10T07:06:47;11.13;;;7.15;;
55537;SDS011;41383;51.418;7.286;2023-06-10T07:09:13;9.35;;;6.40;;
55537;SDS011;41383;51.418;7.286;2023-06-10T07:11:38;10.65;;;6.93;;
55537;SDS011;41383;51.418;7.286;2023-06-10T07:14:04;13.02;;;7.47;;
55537;SDS011;41383;51.418;7.286;2023-06-10T07:16:29;21.58;;;7.82;;
55537;SDS011;41383;51.418;7.286;2023-06-10T07:18:54;11.60;;;6.87;;
55537;SDS011;41383;51.418;7.286;2023-06-10T07:21:20;16.42;;;7.82;;
55537;SDS011;41383;51.418;7.286;2023-06-10T07:23:45;16.90;;;8.10;;
55537;SDS011;41383;51.418;7.286;2023-06-10T07:26:11;11.90;;;6.68;;
55537;SDS011;41383;51.418;7.286;2023-06-10T07:28:38;16.17;;;7.10;;
55537;SDS011;41383;51.418;7.286;2023-06-10T07:31:04;10.82;;;6.43;;
55537;SDS011;41383;51.418;7.286;2023-06-10T07:33:30;11.13;;;7.20;;
55537;SDS011;41383;51.418;7.286;2023-06-10T07:35:55;13.53;;;7.03;;
55537;SDS011;41383;51.418;7.286;2023-06-10T07:38:20;11.13;;;7.22;;
55537;SDS011;41383;51.418;7.286;2023-06-10T07:40:45;17.93;;;7.50;;
55537;SDS011;41383;51.418;7.286;2023-06-10T07:43:11;12.27;;;7.05;;
55537;SDS011;41383;51.418;7.286;2023-06-10T07:45:36;10.03;;;6.73;;
55537;SDS011;41383;51.418;7.286;2023-06-10T07:48:02;12.45;;;6.68;;
55537;SDS011;41383;51.418;7.286;2023-06-10T07:50:27;14.20;;;8.00;;
55537;SDS011;41383;51.418;7.286;2023-06-10T07:52:52;9.97;;;6.50;;
55537;SDS011;41383;51.418;7.286;2023-06-10T07:55:17;11.68;;;7.97;;
55537;SDS011;41383;51.418;7.286;2023-06-10T07:57:43;11.38;;;6.03;;
55537;SDS011;41383;51.418;7.286;2023-06-10T08:00:08;10.37;;;6.10;;
55537;SDS011;41383;51.418;7.286;2023-06-10T08:02:34;12.13;;;6.68;;
55537;SDS011;41383;51.418;7.286;2023-06-10T08:04:59;14.93;;;7.37;;
55537;SDS011;41383;51.418;7.286;2023-06-10T08:07:24;14.40;;;6.87;;
55537;SDS011;41383;51.418;7.286;2023-06-10T08:09:50;13.48;;;6.25;;
55537;SDS011;41383;51.418;7.286;2023-06-10T08:12:15;15.43;;;7.15;;
55537;SDS011;41383;51.418;7.286;2023-06-10T08:14:41;10.77;;;6.93;;
55537;SDS011;41383;51.418;7.286;2023-06-10T08:17:06;10.97;;;6.33;;
55537;SDS011;41383;51.418;7.286;2023-06-10T08:19:31;11.55;;;6.65;;
55537;SDS011;41383;51.418;7.286;2023-06-10T08:21:57;15.00;;;6.87;;
55537;SDS011;41383;51.418;7.286;2023-06-10T08:24:22;13.97;;;6.93;;
55537;SDS011;41383;51.418;7.286;2023-06-10T08:26:47;12.60;;;6.50;;
55537;SDS011;41383;51.418;7.286;2023-06-10T08:29:13;12.60;;;6.30;;
55537;SDS011;41383;51.418;7.286;2023-06-10T08:31:41;9.73;;;6.30;;
55537;SDS011;41383;51.418;7.286;2023-06-10T08:34:07;22.80;;;6.35;;
55537;SDS011;41383;51.418;7.286;2023-06-10T08:36:33;11.45;;;7.18;;
55537;SDS011;41383;51.418;7.286;2023-06-10T08:38:58;11.80;;;7.37;;
55537;SDS011;41383;51.418;7.286;2023-06-10T08:41:23;14.10;;;7.13;;
55537;SDS011;41383;51.418;7.286;2023-06-10T08:43:59;14.35;;;7.07;;
55537;SDS011;41383;51.418;7.286;2023-06-10T08:46:33;15.75;;;7.68;;
55537;SDS011;41383;51.418;7.286;2023-06-10T08:48:59;11.27;;;5.80;;
55537;SDS011;41383;51.418;7.286;2023-06-10T08:51:28;10.93;;;6.82;;
55537;SDS011;41383;51.418;7.286;2023-06-10T08:54:01;10.50;;;6.13;;
55537;SDS011;41383;51.418;7.286;2023-06-10T08:56:27;10.52;;;6.65;;
55537;SDS011;41383;51.418;7.286;2023-06-10T08:58:55;11.75;;;7.32;;
55537;SDS011;41383;51.418;7.286;2023-06-10T09:01:21;11.18;;;6.05;;
55537;SDS011;41383;51.418;7.286;2023-06-10T09:03:48;11.10;;;6.93;;
55537;SDS011;41383;51.418;7.286;2023-06-10T09:06:14;11.60;;;6.97;;
55537;SDS011;41383;51.418;7.286;2023-06-10T09:08:40;13.07;;;7.05;;
55537;SDS011;41383;51.418;7.286;2023-06-10T09:11:07;10.40;;;6.03;;
55537;SDS011;41383;51.418;7.286;2023-06-10T09:13:32;17.67;;;6.50;;
55537;SDS011;41383;51.418;7.286;2023-06-10T09:15:57;15.20;;;7.30;;
55537;SDS011;41383;51.418;7.286;2023-06-10T09:18:26;12.18;;;6.15;;
55537;SDS011;41383;51.418;7.286;2023-06-10T09:20:52;30.10;;;8.00;;
55537;SDS011;41383;51.418;7.286;2023-06-10T09:23:17;18.17;;;8.53;;
55537;SDS011;41383;51.418;7.286;2023-06-10T09:25:43;9.85;;;5.75;;
55537;SDS011;41383;51.418;7.286;2023-06-10T09:28:14;15.90;;;6.80;;
55537;SDS011;41383;51.418;7.286;2023-06-10T10:53:33;22.42;;;7.60;;
55537;SDS011;41383;51.418;7.286;2023-06-10T10:55:59;19.60;;;8.02;;
55537;SDS011;41383;51.418;7.286;2023-06-10T10:58:35;9.15;;;6.53;;
55537;SDS011;41383;51.418;7.286;2023-06-10T11:01:09;13.80;;;6.93;;
55537;SDS011;41383;51.418;7.286;2023-06-10T11:03:35;11.27;;;8.05;;
55537;SDS011;41383;51.418;7.286;2023-06-10T11:11:18;11.25;;;6.70;;
55537;SDS011;41383;51.418;7.286;2023-06-10T11:16:29;28.13;;;8.85;;
55537;SDS011;41383;51.418;7.286;2023-06-10T11:18:55;12.40;;;7.20;;
55537;SDS011;41383;51.418;7.286;2023-06-10T11:21:22;12.82;;;7.80;;
55537;SDS011;41383;51.418;7.286;2023-06-10T11:23:49;13.75;;;8.25;;
55537;SDS011;41383;51.418;7.286;2023-06-10T11:31:22;14.83;;;7.30;;
55537;SDS011;41383;51.418;7.286;2023-06-10T11:33:52;9.38;;;6.60;;
55537;SDS011;41383;51.418;7.286;2023-06-10T11:36:18;12.23;;;6.55;;
55537;SDS011;41383;51.418;7.286;2023-06-10T11:38:44;9.02;;;6.13;;
55537;SDS011;41383;51.418;7.286;2023-06-10T11:41:10;9.80;;;6.68;;
55537;SDS011;41383;51.418;7.286;2023-06-10T11:43:36;10.05;;;6.97;;
55537;SDS011;41383;51.418;7.286;2023-06-10T11:46:02;13.02;;;6.65;;
55537;SDS011;41383;51.418;7.286;2023-06-10T11:48:27;23.00;;;7.77;;
55537;SDS011;41383;51.418;7.286;2023-06-10T11:50:56;10.20;;;6.97;;
55537;SDS011;41383;51.418;7.286;2023-06-10T11:53:21;13.53;;;7.10;;
55537;SDS011;41383;51.418;7.286;2023-06-10T11:55:47;11.63;;;6.90;;
55537;SDS011;41383;51.418;7.286;2023-06-10T11:58:21;9.88;;;6.43;;
55537;SDS011;41383;51.418;7.286;2023-06-10T12:00:51;13.48;;;8.18;;
55537;SDS011;41383;51.418;7.286;2023-06-10T12:03:26;15.57;;;7.90;;
55537;SDS011;41383;51.418;7.286;2023-06-10T12:06:01;38.53;;;10.25;;
55537;SDS011;41383;51.418;7.286;2023-06-10T12:08:27;12.63;;;7.28;;
55537;SDS011;41383;51.418;7.286;2023-06-10T12:10:53;10.20;;;6.88;;
55537;SDS011;41383;51.418;7.286;2023-06-10T12:13:19;24.40;;;8.25;;
55537;SDS011;41383;51.418;7.286;2023-06-10T12:15:45;11.07;;;7.03;;
55537;SDS011;41383;51.418;7.286;2023-06-10T12:18:19;12.77;;;7.22;;
55537;SDS011;41383;51.418;7.286;2023-06-10T12:20:45;11.27;;;7.07;;
55537;SDS011;41383;51.418;7.286;2023-06-10T12:23:11;12.27;;;6.78;;
55537;SDS011;41383;51.418;7.286;2023-06-10T12:25:37;14.30;;;8.02;;
55537;SDS011;41383;51.418;7.286;2023-06-10T12:28:03;12.27;;;7.03;;
55537;SDS011;41383;51.418;7.286;2023-06-10T12:30:29;12.18;;;7.85;;
55537;SDS011;41383;51.418;7.286;2023-06-10T12:32:55;14.05;;;7.55;;
55537;SDS011;41383;51.418;7.286;2023-06-10T12:35:25;12.95;;;7.20;;
55537;SDS011;41383;51.418;7.286;2023-06-10T12:38:02;19.55;;;7.35;;
55537;SDS011;41383;51.418;7.286;2023-06-10T12:40:32;11.45;;;7.70;;
55537;SDS011;41383;51.418;7.286;2023-06-10T12:42:59;9.65;;;6.97;;
55537;SDS011;41383;51.418;7.286;2023-06-10T12:45:28;12.05;;;7.85;;
55537;SDS011;41383;51.418;7.286;2023-06-10T12:48:08;11.38;;;7.28;;
55537;SDS011;41383;51.418;7.286;2023-06-10T12:50:36;11.68;;;7.32;;
55537;SDS011;41383;51.418;7.286;2023-06-10T12:53:02;7.88;;;6.53;;
55537;SDS011;41383;51.418;7.286;2023-06-10T12:55:28;10.93;;;6.85;;
55537;SDS011;41383;51.418;7.286;2023-06-10T12:57:53;11.18;;;7.53;;
55537;SDS011;41383;51.418;7.286;2023-06-10T13:00:19;13.80;;;7.72;;
55537;SDS011;41383;51.418;7.286;2023-06-10T13:02:44;11.20;;;7.95;;
55537;SDS011;41383;51.418;7.286;2023-06-10T13:05:09;23.80;;;8.47;;
55537;SDS011;41383;51.418;7.286;2023-06-10T13:07:35;10.60;;;7.20;;
55537;SDS011;41383;51.418;7.286;2023-06-10T13:10:00;12.03;;;7.47;;
55537;SDS011;41383;51.418;7.286;2023-06-10T13:12:26;10.55;;;7.35;;
55537;SDS011;41383;51.418;7.286;2023-06-10T13:14:53;12.35;;;6.85;;
55537;SDS011;41383;51.418;7.286;2023-06-10T13:17:19;13.23;;;7.03;;
55537;SDS011;41383;51.418;7.286;2023-06-10T13:19:45;10.82;;;7.10;;
55537;SDS011;41383;51.418;7.286;2023-06-10T13:22:11;14.13;;;8.85;;
55537;SDS011;41383;51.418;7.286;2023-06-10T13:24:38;15.82;;;7.65;;
55537;SDS011;41383;51.418;7.286;2023-06-10T13:27:04;13.18;;;6.80;;
55537;SDS011;41383;51.418;7.286;2023-06-10T13:29:29;51.33;;;10.00;;
55537;SDS011;41383;51.418;7.286;2023-06-10T13:31:55;22.90;;;8.85;;
55537;SDS011;41383;51.418;7.286;2023-06-10T13:34:21;14.70;;;7.80;;
55537;SDS011;41383;51.418;7.286;2023-06-10T13:36:46;13.67;;;8.43;;
55537;SDS011;41383;51.418;7.286;2023-06-10T13:39:11;11.37;;;6.50;;
55537;SDS011;41383;51.418;7.286;2023-06-10T13:41:38;12.80;;;7.72;;
55537;SDS011;41383;51.418;7.286;2023-06-10T13:44:04;13.23;;;8.32;;
55537;SDS011;41383;51.418;7.286;2023-06-10T13:46:30;11.30;;;7.70;;
55537;SDS011;41383;51.418;7.286;2023-06-10T13:48:55;15.57;;;7.83;;
55537;SDS011;41383;51.418;7.286;2023-06-10T13:51:20;10.87;;;7.27;;
55537;SDS011;41383;51.418;7.286;2023-06-10T13:53:45;11.23;;;7.20;;
55537;SDS011;41383;51.418;7.286;2023-06-10T13:56:11;11.65;;;7.43;;
55537;SDS011;41383;51.418;7.286;2023-06-10T13:58:36;14.07;;;8.15;;
55537;SDS011;41383;51.418;7.286;2023-06-10T14:01:04;10.77;;;7.80;;
55537;SDS011;41383;51.418;7.286;2023-06-10T14:03:30;10.68;;;7.50;;
55537;SDS011;41383;51.418;7.286;2023-06-10T14:05:55;9.57;;;7.10;;
55537;SDS011;41383;51.418;7.286;2023-06-10T14:08:20;14.00;;;8.33;;
55537;SDS011;41383;51.418;7.286;2023-06-10T14:10:46;14.00;;;7.75;;
55537;SDS011;41383;51.418;7.286;2023-06-10T14:13:11;15.47;;;8.07;;
55537;SDS011;41383;51.418;7.286;2023-06-10T14:15:36;12.77;;;7.53;;
55537;SDS011;41383;51.418;7.286;2023-06-10T14:18:02;15.40;;;7.20;;
55537;SDS011;41383;51.418;7.286;2023-06-10T14:20:27;11.18;;;7.53;;
55537;SDS011;41383;51.418;7.286;2023-06-10T14:22:56;15.27;;;7.43;;
55537;SDS011;41383;51.418;7.286;2023-06-10T14:25:21;10.83;;;7.30;;
55537;SDS011;41383;51.418;7.286;2023-06-10T14:27:46;13.50;;;6.90;;
55537;SDS011;41383;51.418;7.286;2023-06-10T14:30:12;11.07;;;7.57;;
55537;SDS011;41383;51.418;7.286;2023-06-10T14:32:37;10.48;;;7.28;;
55537;SDS011;41383;51.418;7.286;2023-06-10T14:35:02;12.00;;;6.67;;
55537;SDS011;41383;51.418;7.286;2023-06-10T14:37:28;10.88;;;7.25;;
55537;SDS011;41383;51.418;7.286;2023-06-10T14:39:53;13.57;;;7.73;;
55537;SDS011;41383;51.418;7.286;2023-06-10T14:42:19;16.03;;;7.23;;
55537;SDS011;41383;51.418;7.286;2023-06-10T14:44:44;11.50;;;7.63;;
55537;SDS011;41383;51.418;7.286;2023-06-10T14:47:09;17.77;;;7.03;;
55537;SDS011;41383;51.418;7.286;2023-06-10T14:49:34;12.03;;;7.20;;
55537;SDS011;41383;51.418;7.286;2023-06-10T14:51:59;17.07;;;7.77;;
55537;SDS011;41383;51.418;7.286;2023-06-10T14:54:25;10.93;;;7.63;;
55537;SDS011;41383;51.418;7.286;2023-06-10T14:56:50;12.00;;;7.80;;
55537;SDS011;41383;51.418;7.286;2023-06-10T14:59:15;10.60;;;7.23;;
55537;SDS011;41383;51.418;7.286;2023-06-10T15:01:41;16.02;;;8.05;;
55537;SDS011;41383;51.418;7.286;2023-06-10T15:04:06;18.37;;;7.27;;
55537;SDS011;41383;51.418;7.286;2023-06-10T15:06:31;12.07;;;7.57;;
55537;SDS011;41383;51.418;7.286;2023-06-10T15:08:56;12.30;;;7.97;;
55537;SDS011;41383;51.418;7.286;2023-06-10T15:11:22;12.60;;;7.60;;
55537;SDS011;41383;51.418;7.286;2023-06-10T15:13:48;11.43;;;7.78;;
55537;SDS011;41383;51.418;7.286;2023-06-10T15:16:13;9.17;;;7.03;;
55537;SDS011;41383;51.418;7.286;2023-06-10T15:18:40;9.95;;;7.00;;
55537;SDS011;41383;51.418;7.286;2023-06-10T15:21:05;11.07;;;7.60;;
55537;SDS011;41383;51.418;7.286;2023-06-10T15:23:30;14.35;;;7.45;;
55537;SDS011;41383;51.418;7.286;2023-06-10T15:25:55;9.33;;;6.47;;
55537;SDS011;41383;51.418;7.286;2023-06-10T15:28:21;15.32;;;7.07;;
55537;SDS011;41383;51.418;7.286;2023-06-10T15:30:46;12.53;;;7.53;;
55537;SDS011;41383;51.418;7.286;2023-06-10T15:33:11;9.00;;;7.10;;
55537;SDS011;41383;51.418;7.286;2023-06-10T15:35:37;14.60;;;6.87;;
55537;SDS011;41383;51.418;7.286;2023-06-10T15:38:02;13.03;;;8.17;;
55537;SDS011;41383;51.418;7.286;2023-06-10T15:40:27;9.50;;;6.57;;
55537;SDS011;41383;51.418;7.286;2023-06-10T15:42:53;11.37;;;7.20;;
55537;SDS011;41383;51.418;7.286;2023-06-10T15:45:18;11.93;;;6.33;;
55537;SDS011;41383;51.418;7.286;2023-06-10T15:47:43;10.30;;;7.03;;
55537;SDS011;41383;51.418;7.286;2023-06-10T15:50:09;10.52;;;6.82;;
55537;SDS011;41383;51.418;7.286;2023-06-10T15:52:34;13.75;;;6.68;;
55537;SDS011;41383;51.418;7.286;2023-06-10T15:55:00;10.48;;;6.63;;
55537;SDS011;41383;51.418;7.286;2023-06-10T15:57:26;14.13;;;7.78;;
55537;SDS011;41383;51.418;7.286;2023-06-10T15:59:51;12.67;;;7.10;;
55537;SDS011;41383;51.418;7.286;2023-06-10T16:02:17;15.83;;;6.13;;
55537;SDS011;41383;51.418;7.286;2023-06-10T16:04:42;10.35;;;6.78;;